Creston, Washington
Current Conditions -  °F | °C
As of 1:58 AM on Monday 22 Dec 2014 (Local Time) from KSKA Reporting Station
Clear Clear  
Wind Chill: 28°   Ceiling: Unl
Heat Index: 35°   Visibility: 10mi
Dew Point: 31°   Wind: 10mph
Humidity: 84%   Direction: 240°WSW
Pressure: 29.99"   Gusts: NA
Location:  47.76°N, 118.52°W
Report Text: KSKA 220958Z AUTO 24009KT 10SM CLR 02/M01 A2999 RMK AO2 UPB0858E0859UPB46 SLP171 P0000 T00191006 $
Loading
Personal Weather Stations






























Interactive Weather Map New forecast layout! Learn more

10-Day Weather Forecast

Advertisements
Track Severe Weather on mobile